Time;durP1;ratioP1;P1;durP2;ratioP2;P2;SDS_P1;SDS_P2;PMS_P1;PMS_P2;Temp;Humidity;BMP_temperature;BMP_pressure;BME280_temperature;BME280_humidity;BME280_pressure;Samples;Min_cycle;Max_cycle;Signal;HPM_P1;HPM_P2
2022/02/22 00:01:17;;;;;;;4.45;2.30;;;;;;;5.20;100.00;98191.77;1842134;77;21511;-61
2022/02/22 00:03:43;;;;;;;4.55;2.50;;;;;;;5.23;100.00;98189.33;1830433;77;22300;-61
2022/02/22 00:06:10;;;;;;;4.37;2.77;;;;;;;5.16;100.00;98191.51;1834207;77;21676;-62
2022/02/22 00:08:36;;;;;;;5.65;2.72;;;;;;;5.09;100.00;98191.52;1827822;78;21575;-61
2022/02/22 00:11:03;;;;;;;4.00;2.50;;;;;;;5.11;100.00;98185.30;1836149;77;20991;-61
2022/02/22 00:13:29;;;;;;;7.30;2.83;;;;;;;5.17;100.00;98186.39;1828341;77;21063;-61
2022/02/22 00:15:57;;;;;;;;;;;;;;;5.18;100.00;98188.52;1829980;78;21064;-61
2022/02/22 00:18:23;;;;;;;4.17;2.80;;;;;;;5.12;100.00;98188.27;1827839;78;20109;-61
2022/02/22 00:20:50;;;;;;;4.15;2.60;;;;;;;4.98;100.00;98188.04;1830466;77;20996;-61
2022/02/22 00:23:16;;;;;;;6.75;2.87;;;;;;;4.91;100.00;98178.08;1830130;77;21004;-61
2022/02/22 00:25:43;;;;;;;5.28;3.00;;;;;;;4.88;100.00;98171.35;1835249;77;21083;-61
2022/02/22 00:28:09;;;;;;;5.83;3.30;;;;;;;4.95;100.00;98167.02;1836739;77;21088;-61
2022/02/22 00:30:36;;;;;;;6.30;3.17;;;;;;;4.95;100.00;98166.48;1838570;77;21012;-62
2022/02/22 00:33:02;;;;;;;;;;;;;;;4.89;100.00;98169.44;1836599;77;21070;-61
2022/02/22 00:35:29;;;;;;;6.53;3.35;;;;;;;4.85;100.00;98165.70;1823121;78;20106;-60
2022/02/22 00:37:55;;;;;;;;;;;;;;;4.76;100.00;98172.70;1824752;77;21055;-61
2022/02/22 00:40:22;;;;;;;5.50;3.20;;;;;;;4.78;100.00;98167.87;1809255;77;20131;-61
2022/02/22 00:42:48;;;;;;;5.03;3.02;;;;;;;4.83;100.00;98171.88;1827224;77;21035;-61
2022/02/22 00:45:14;;;;;;;5.20;3.15;;;;;;;4.84;100.00;98171.63;1823094;77;21039;-62
2022/02/22 00:47:41;;;;;;;;;;;;;;;4.79;100.00;98168.92;1821976;77;21000;-61
2022/02/22 00:50:08;;;;;;;6.65;3.05;;;;;;;4.75;100.00;98165.69;1822258;77;20446;-61
2022/02/22 00:52:36;;;;;;;5.25;3.05;;;;;;;4.66;100.00;98173.53;1803722;77;21072;-61
2022/02/22 00:55:04;;;;;;;6.00;3.20;;;;;;;4.70;100.00;98171.11;1826280;77;21037;-61
2022/02/22 00:57:32;;;;;;;4.97;3.10;;;;;;;4.77;100.00;98171.09;1827149;77;21452;-61
2022/02/22 00:59:59;;;;;;;5.25;2.87;;;;;;;4.84;100.00;98175.67;1824201;77;20996;-61
2022/02/22 01:02:25;;;;;;;5.30;2.90;;;;;;;4.87;100.00;98178.35;1819933;77;21073;-62
2022/02/22 01:04:52;;;;;;;6.37;3.15;;;;;;;4.82;100.00;98188.59;1821006;78;20977;-61
2022/02/22 01:07:18;;;;;;;;;;;;;;;4.78;100.00;98192.13;1823283;77;20976;-62
2022/02/22 01:09:47;;;;;;;5.80;3.30;;;;;;;4.73;100.00;98192.13;1822336;77;20117;-61
2022/02/22 01:12:14;;;;;;;;;;;;;;;4.64;100.00;98187.02;1816225;77;20968;-61
2022/02/22 01:14:42;;;;;;;5.60;2.90;;;;;;;4.71;100.00;98192.95;1826445;78;20423;-60
2022/02/22 01:17:09;;;;;;;4.78;2.90;;;;;;;4.77;100.00;98190.50;1817422;77;21023;-61
2022/02/22 01:19:35;;;;;;;;;;;;;;;4.71;100.00;98182.95;1826481;77;21126;-60
2022/02/22 01:22:02;;;;;;;4.67;3.05;;;;;;;4.73;100.00;98200.20;1819030;78;20113;-61
2022/02/22 01:24:28;;;;;;;7.00;3.60;;;;;;;4.60;100.00;98196.19;1807248;78;21016;-60
2022/02/22 01:26:55;;;;;;;;;;;;;;;4.66;100.00;98194.28;1811155;78;21015;-60
2022/02/22 01:29:21;;;;;;;5.78;2.90;;;;;;;4.75;100.00;98197.50;1824319;77;20408;-61
2022/02/22 01:31:48;;;;;;;5.10;3.45;;;;;;;4.77;100.00;98207.48;1824508;77;21585;-61
2022/02/22 01:34:14;;;;;;;4.80;2.98;;;;;;;4.80;100.00;98204.25;1823284;77;21641;-60
2022/02/22 01:36:40;;;;;;;6.58;3.80;;;;;;;4.78;100.00;98194.83;1833173;77;21899;-61
2022/02/22 01:39:07;;;;;;;6.78;3.83;;;;;;;4.74;100.00;98193.75;1824831;77;21565;-61
2022/02/22 01:41:37;;;;;;;6.45;3.45;;;;;;;4.73;100.00;98198.33;1830238;77;21545;-61
2022/02/22 01:44:04;;;;;;;5.08;3.58;;;;;;;4.80;100.00;98188.61;1809652;77;21062;-61
2022/02/22 01:46:31;;;;;;;5.85;3.95;;;;;;;4.79;100.00;98193.72;1847906;77;21024;-61
2022/02/22 01:48:59;;;;;;;7.33;4.10;;;;;;;4.71;100.00;98191.59;1829843;77;21103;-61
2022/02/22 01:51:25;;;;;;;6.15;3.95;;;;;;;4.64;100.00;98185.11;1827930;77;21044;-61
2022/02/22 01:53:52;;;;;;;6.03;4.10;;;;;;;4.67;100.00;98191.87;1835285;77;20999;-61
2022/02/22 01:56:18;;;;;;;5.95;4.00;;;;;;;4.77;100.00;98198.59;1840806;77;21001;-62
2022/02/22 01:58:45;;;;;;;;;;;;;;;4.77;100.00;98192.66;1836138;75;21019;-61
2022/02/22 02:01:12;;;;;;;;;;;;;;;4.74;100.00;98193.21;1833314;77;20120;-61
2022/02/22 02:03:39;;;;;;;6.87;4.33;;;;;;;4.64;100.00;98187.80;1831564;77;20089;-61
2022/02/22 02:06:06;;;;;;;6.83;4.53;;;;;;;4.55;100.00;98176.50;1844790;77;20996;-61
2022/02/22 02:08:33;;;;;;;7.25;4.50;;;;;;;4.64;100.00;98183.76;1829239;77;21031;-60
2022/02/22 02:11:00;;;;;;;6.55;4.30;;;;;;;4.75;100.00;98197.50;1831500;77;21044;-62
2022/02/22 02:13:28;;;;;;;6.65;4.55;;;;;;;4.77;100.00;98192.66;1844535;75;21102;-61
2022/02/22 02:15:54;;;;;;;7.70;4.42;;;;;;;4.75;100.00;98200.73;1831149;77;21086;-61
2022/02/22 02:18:21;;;;;;;;;;;;;;;4.68;100.00;98201.02;1855448;77;21534;-61
2022/02/22 02:20:47;;;;;;;7.78;4.80;;;;;;;4.70;100.00;98210.19;1847158;77;20138;-61
2022/02/22 02:23:14;;;;;;;6.45;4.42;;;;;;;4.74;100.00;98215.31;1837643;77;21085;-61
2022/02/22 02:25:40;;;;;;;6.40;4.15;;;;;;;4.75;100.00;98215.02;1838051;77;21043;-61
2022/02/22 02:28:07;;;;;;;;;;;;;;;4.68;100.00;98210.98;1849921;77;21607;-60
2022/02/22 02:30:33;;;;;;;7.00;4.70;;;;;;;4.61;100.00;98222.57;1829752;77;20380;-61
2022/02/22 02:33:00;;;;;;;6.78;4.40;;;;;;;4.60;100.00;98220.44;1829572;77;21060;-61
2022/02/22 02:35:27;;;;;;;6.55;4.10;;;;;;;4.63;100.00;98229.86;1832133;77;23256;-62
2022/02/22 02:37:53;;;;;;;7.08;4.95;;;;;;;4.63;100.00;98229.86;1820186;77;20992;-63
2022/02/22 02:40:20;;;;;;;6.40;4.62;;;;;;;4.58;100.00;98237.94;1825353;77;21076;-61
2022/02/22 02:42:46;;;;;;;6.42;4.55;;;;;;;4.60;100.00;98239.84;1811932;77;21122;-61
2022/02/22 02:45:13;;;;;;;6.58;4.53;;;;;;;4.66;100.00;98242.80;1818989;77;21052;-61
2022/02/22 02:47:39;;;;;;;8.58;5.33;;;;;;;4.66;100.00;98249.00;1824005;78;21040;-61
2022/02/22 02:50:10;;;;;;;7.65;5.10;;;;;;;4.59;100.00;98249.81;1820618;78;21059;-62
2022/02/22 02:52:38;;;;;;;9.00;4.70;;;;;;;4.55;100.00;98247.91;1798711;79;21110;-61
2022/02/22 02:55:05;;;;;;;6.97;4.40;;;;;;;4.57;100.00;98251.95;1816707;77;21079;-62
2022/02/22 02:57:33;;;;;;;6.83;4.40;;;;;;;4.66;100.00;98256.28;1825238;77;21024;-61
2022/02/22 02:59:59;;;;;;;7.65;5.40;;;;;;;4.68;100.00;98256.80;1827851;77;21424;-61
2022/02/22 03:02:26;;;;;;;8.20;5.03;;;;;;;4.62;100.00;98261.94;1830676;77;21016;-61
2022/02/22 03:04:58;;;;;;;;;;;;;;;4.57;100.00;98268.68;1823777;78;21793;-61
2022/02/22 03:07:21;;;;;;;6.03;4.40;;;;;;;4.58;100.00;98268.39;1821460;77;20103;-61
2022/02/22 03:09:47;;;;;;;;;;;;;;;4.65;100.00;98276.21;1824534;77;20995;-61
2022/02/22 03:12:14;;;;;;;7.80;5.03;;;;;;;4.62;100.00;98287.00;1814273;77;20104;-61
2022/02/22 03:14:40;;;;;;;9.33;5.95;;;;;;;4.50;100.00;98291.29;1798838;77;20992;-61
2022/02/22 03:17:07;;;;;;;8.45;5.55;;;;;;;4.45;100.00;98286.45;1817864;77;21087;-61
2022/02/22 03:19:34;;;;;;;8.60;5.30;;;;;;;4.48;100.00;98296.69;1817886;77;21138;-61
2022/02/22 03:22:00;;;;;;;8.28;5.55;;;;;;;4.58;100.00;98296.70;1772137;80;21073;-62
2022/02/22 03:24:27;;;;;;;8.45;6.25;;;;;;;4.58;100.00;98295.34;1766513;80;21136;-62
2022/02/22 03:26:54;;;;;;;9.35;5.53;;;;;;;4.53;100.00;98296.14;1770937;80;21028;-61
2022/02/22 03:29:20;;;;;;;12.50;5.60;;;;;;;4.56;100.00;98304.25;1795587;79;21021;-61
2022/02/22 03:31:47;;;;;;;8.63;5.92;;;;;;;4.60;100.00;98303.99;1787826;80;20998;-62
2022/02/22 03:34:13;;;;;;;9.38;5.78;;;;;;;4.56;100.00;98306.95;1784378;80;21061;-60
2022/02/22 03:36:39;;;;;;;8.33;5.60;;;;;;;4.50;100.00;98315.55;1783107;80;21013;-60
2022/02/22 03:39:06;;;;;;;9.20;5.50;;;;;;;4.57;100.00;98301.02;1753449;80;21594;-62
2022/02/22 03:41:32;;;;;;;9.40;6.10;;;;;;;4.64;100.00;98309.66;1757524;80;21068;-61
2022/02/22 03:43:59;;;;;;;7.67;5.50;;;;;;;4.66;100.00;98306.14;1769937;79;21726;-61
2022/02/22 03:46:26;;;;;;;8.58;5.58;;;;;;;4.58;100.00;98306.66;1757248;80;21030;-61
2022/02/22 03:48:53;;;;;;;8.65;5.47;;;;;;;4.54;100.00;98315.82;1779766;79;21085;-61
2022/02/22 03:51:19;;;;;;;7.65;5.40;;;;;;;4.60;100.00;98316.13;1782863;79;21035;-61
2022/02/22 03:53:45;;;;;;;8.55;5.80;;;;;;;4.60;100.00;98309.92;1767264;80;21089;-62
2022/02/22 03:56:12;;;;;;;8.20;5.65;;;;;;;4.53;100.00;98308.02;1768722;81;21065;-61
2022/02/22 03:58:38;;;;;;;9.33;5.80;;;;;;;4.50;100.00;98312.84;1753590;82;21115;-61
2022/02/22 04:01:05;;;;;;;8.83;6.03;;;;;;;4.55;100.00;98317.98;1755039;81;21040;-61
2022/02/22 04:03:31;;;;;;;8.43;6.42;;;;;;;4.54;100.00;98325.25;1762861;79;21052;-61
2022/02/22 04:05:57;;;;;;;8.35;6.00;;;;;;;4.46;100.00;98329.27;1755910;80;21001;-61
2022/02/22 04:08:24;;;;;;;9.98;6.25;;;;;;;4.40;100.00;98330.34;1754937;80;21056;-61
2022/02/22 04:10:51;;;;;;;9.20;5.87;;;;;;;4.42;100.00;98324.70;1778273;79;20960;-61
2022/02/22 04:13:17;;;;;;;8.20;5.40;;;;;;;4.48;100.00;98328.48;1793643;78;21424;-61
2022/02/22 04:18:33;;;;;;;8.50;6.15;;;;;;;4.43;100.00;98327.12;1786601;79;22547;-61
2022/02/22 04:20:59;;;;;;;10.60;5.95;;;;;;;4.31;100.00;98329.80;1746594;81;21063;-61
2022/02/22 04:23:26;;;;;;;10.40;6.08;;;;;;;4.35;100.00;98331.70;1746261;82;21094;-61
2022/02/22 04:25:52;;;;;;;8.43;5.87;;;;;;;4.38;100.00;98323.08;1749509;82;20979;-61
2022/02/22 04:28:18;;;;;;;8.85;6.50;;;;;;;4.34;100.00;98321.17;1749653;82;21097;-60
2022/02/22 04:30:45;;;;;;;10.08;6.28;;;;;;;4.27;100.00;98318.73;1745809;81;21085;-61
2022/02/22 04:33:12;;;;;;;;;;;;;;;4.25;100.00;98326.81;1751233;80;21554;-60
2022/02/22 04:35:38;;;;;;;8.30;5.97;;;;;;;4.30;100.00;98326.28;1748562;82;20167;-61
2022/02/22 04:38:04;;;;;;;9.23;6.62;;;;;;;4.28;100.00;98329.80;1748583;81;21031;-61
2022/02/22 04:40:31;;;;;;;;;;;;;;;4.20;100.00;98332.98;1751520;81;21387;-62
2022/02/22 04:42:57;;;;;;;9.83;6.80;;;;;;;4.15;100.00;98340.23;1749140;80;20134;-61
2022/02/22 04:45:25;;;;;;;8.55;6.50;;;;;;;4.15;100.00;98338.87;1748327;81;21085;-61
2022/02/22 04:47:55;;;;;;;;;;;;;;;4.17;100.00;98340.26;1718729;82;21074;-61
2022/02/22 04:50:21;;;;;;;9.90;6.58;;;;;;;4.13;100.00;98342.39;1748338;81;20394;-61
2022/02/22 04:52:47;;;;;;;10.88;6.97;;;;;;;4.01;100.00;98342.60;1749264;80;21102;-61
2022/02/22 04:55:14;;;;;;;11.10;7.15;;;;;;;4.05;100.00;98351.78;1750034;82;20971;-61
2022/02/22 04:57:40;;;;;;;8.65;6.35;;;;;;;4.11;100.00;98347.23;1749332;80;21054;-60
2022/02/22 05:00:10;;;;;;;9.65;6.65;;;;;;;4.06;100.00;98348.02;1746861;82;21023;-61
2022/02/22 05:02:38;;;;;;;9.03;6.55;;;;;;;4.02;100.00;98350.96;1747634;80;21724;-61
2022/02/22 05:05:05;;;;;;;9.35;6.87;;;;;;;4.06;100.00;98354.75;1749715;82;20998;-60
2022/02/22 05:07:33;;;;;;;11.03;7.17;;;;;;;4.05;100.00;98350.43;1749346;80;21538;-60
2022/02/22 05:10:00;;;;;;;10.32;6.55;;;;;;;3.97;100.00;98353.09;1746556;82;21523;-61
2022/02/22 05:12:28;;;;;;;8.88;6.37;;;;;;;3.82;100.00;98351.69;1743711;82;21047;-60
2022/02/22 05:14:54;;;;;;;10.48;6.33;;;;;;;3.89;100.00;98360.87;1741859;82;21030;-61
2022/02/22 05:17:21;;;;;;;8.43;6.08;;;;;;;3.95;100.00;98367.36;1745396;82;21105;-61
2022/02/22 05:19:47;;;;;;;8.43;6.42;;;;;;;3.93;100.00;98373.52;1741133;82;21450;-61
2022/02/22 05:22:13;;;;;;;;;;;;;;;3.89;100.00;98376.49;1744176;81;21593;-61
2022/02/22 05:24:40;;;;;;;9.95;6.58;;;;;;;3.90;100.00;98384.00;1742258;82;20146;-62
2022/02/22 05:27:08;;;;;;;8.38;6.10;;;;;;;3.93;100.00;98391.02;1741281;82;21082;-61
2022/02/22 05:29:34;;;;;;;9.83;6.78;;;;;;;3.87;100.00;98388.57;1737486;82;20927;-61
2022/02/22 05:32:01;;;;;;;10.10;6.20;;;;;;;3.80;100.00;98396.06;1738874;82;21050;-61
2022/02/22 05:34:27;;;;;;;;;;;;;;;3.76;100.00;98399.81;1740381;81;21677;-61
2022/02/22 05:36:54;;;;;;;9.88;6.58;;;;;;;3.83;100.00;98407.66;1733685;82;20110;-60
2022/02/22 05:39:20;;;;;;;8.45;5.90;;;;;;;3.86;100.00;98407.16;1738474;82;21054;-61
2022/02/22 05:41:46;;;;;;;9.78;7.17;;;;;;;3.86;100.00;98404.47;1738311;82;20982;-61
2022/02/22 05:44:13;;;;;;;9.60;6.70;;;;;;;3.81;100.00;98408.47;1741327;82;21051;-60
2022/02/22 05:46:40;;;;;;;9.30;6.00;;;;;;;3.81;100.00;98411.97;1733184;82;21055;-60
2022/02/22 05:49:06;;;;;;;;;;;;;;;3.87;100.00;98411.45;1737991;81;21525;-62
2022/02/22 05:51:32;;;;;;;11.35;6.83;;;;;;;3.83;100.00;98418.42;1728290;82;20167;-61
2022/02/22 05:53:59;;;;;;;8.63;6.45;;;;;;;3.72;100.00;98419.45;1738817;82;21043;-61
2022/02/22 05:56:25;;;;;;;9.10;6.80;;;;;;;3.78;100.00;98420.57;1737088;82;20987;-61
2022/02/22 05:58:52;;;;;;;9.43;6.28;;;;;;;3.87;100.00;98428.42;1731295;82;21070;-62
2022/02/22 06:01:18;;;;;;;10.23;7.05;;;;;;;3.93;100.00;98437.36;1740561;82;21060;-59
2022/02/22 06:03:44;;;;;;;9.18;6.58;;;;;;;3.91;100.00;98437.61;1740196;82;21072;-60
2022/02/22 06:06:11;;;;;;;8.70;6.33;;;;;;;3.90;100.00;98433.28;1740831;82;21060;-60
2022/02/22 06:08:37;;;;;;;11.03;6.35;;;;;;;3.96;100.00;98440.88;1737343;82;21029;-61
2022/02/22 06:11:04;;;;;;;9.68;6.35;;;;;;;4.07;100.00;98439.86;1741415;82;21435;-59
2022/02/22 06:13:31;;;;;;;8.75;6.47;;;;;;;4.11;100.00;98444.98;1740117;82;21115;-60
2022/02/22 06:15:57;;;;;;;9.70;6.70;;;;;;;4.11;100.00;98446.89;1736364;82;20969;-59
2022/02/22 06:18:25;;;;;;;9.58;6.22;;;;;;;4.12;100.00;98452.52;1743107;81;21098;-60
2022/02/22 06:20:52;;;;;;;9.13;6.37;;;;;;;4.19;100.00;98456.61;1744191;82;21442;-61
2022/02/22 06:23:18;;;;;;;10.45;6.87;;;;;;;4.30;100.00;98450.20;1743794;81;21048;-62
2022/02/22 06:25:44;;;;;;;9.33;7.05;;;;;;;4.31;100.00;98454.53;1743841;82;21014;-62
2022/02/22 06:28:11;;;;;;;9.70;6.42;;;;;;;4.31;100.00;98458.57;1744608;82;21070;-63
2022/02/22 06:30:37;;;;;;;;;;;;;;;4.37;100.00;98465.59;1746579;82;21011;-63
2022/02/22 06:33:04;;;;;;;10.85;6.75;;;;;;;4.48;100.00;98461.87;1731074;82;20107;-62
2022/02/22 06:35:31;;;;;;;11.50;7.37;;;;;;;4.53;100.00;98462.98;1743426;82;20972;-62
2022/02/22 06:45:56;;;;;;;11.35;8.75;;;;;;;4.78;100.00;98465.20;1780557;78;28652;-62
2022/02/22 06:48:23;;;;;;;10.68;7.37;;;;;;;5.17;100.00;98466.14;1742523;81;21051;-62
2022/02/22 06:50:49;;;;;;;9.60;7.20;;;;;;;5.49;100.00;98471.55;1727684;83;21039;-63
2022/02/22 06:53:16;;;;;;;9.63;7.15;;;;;;;5.77;100.00;98465.36;1720011;81;21554;-63
2022/02/22 06:55:42;;;;;;;10.58;7.25;;;;;;;6.00;100.00;98474.27;1728139;82;21070;-62
2022/02/22 06:58:10;;;;;;;10.90;6.42;;;;;;;6.26;100.00;98463.69;1728097;82;21138;-63
2022/02/22 07:00:41;;;;;;;7.97;6.25;;;;;;;6.67;100.00;98462.98;1708884;82;21046;-62
2022/02/22 07:03:07;;;;;;;10.82;6.97;;;;;;;7.15;100.00;98474.93;1728466;81;21015;-63
2022/02/22 07:05:34;;;;;;;;;;;;;;;7.54;100.00;98474.13;1730938;82;21006;-62
2022/02/22 07:08:01;;;;;;;8.75;6.12;;;;;;;7.78;100.00;98479.89;1706753;83;20107;-62
2022/02/22 07:10:28;;;;;;;9.98;6.65;;;;;;;7.62;100.00;98481.63;1728568;83;21062;-62
2022/02/22 07:12:55;;;;;;;;;;;;;;;7.53;100.00;98469.25;1729808;81;21054;-64
2022/02/22 07:15:22;;;;;;;8.53;5.55;;;;;;;7.79;100.00;98486.93;1709605;82;20425;-62
2022/02/22 07:17:52;;;;;;;7.87;5.60;;;;;;;7.92;100.00;98478.14;1728774;81;21042;-63
2022/02/22 07:20:19;;;;;;;7.78;5.33;;;;;;;8.19;100.00;98480.84;1741406;81;21454;-62
2022/02/22 07:22:46;;;;;;;7.62;5.50;;;;;;;8.62;100.00;98474.99;1734647;81;21094;-62
2022/02/22 07:25:13;;;;;;;6.35;4.90;;;;;;;9.02;100.00;98473.14;1705276;82;20992;-62
2022/02/22 07:27:41;;;;;;;7.05;4.87;;;;;;;9.45;100.00;98479.31;1729232;83;21019;-62
2022/02/22 07:30:11;;;;;;;7.12;4.87;;;;;;;9.66;100.00;98475.73;1728444;82;21062;-63
2022/02/22 07:32:38;;;;;;;8.15;5.17;;;;;;;9.59;100.00;98486.17;1728520;81;21058;-62
2022/02/22 07:35:07;;;;;;;7.87;5.12;;;;;;;9.71;100.00;98487.31;1728147;83;21051;-62
2022/02/22 07:37:35;;;;;;;6.42;4.58;;;;;;;9.79;100.00;98489.91;1728199;82;21039;-63
2022/02/22 07:40:04;;;;;;;7.45;4.85;;;;;;;9.91;100.00;98494.35;1709738;83;21082;-63
2022/02/22 07:42:31;;;;;;;6.72;4.90;;;;;;;9.99;100.00;98493.10;1728020;81;21059;-61
2022/02/22 07:44:58;;;;;;;7.25;5.03;;;;;;;9.88;100.00;98491.65;1730601;82;21751;-62
2022/02/22 07:47:24;;;;;;;8.08;5.00;;;;;;;10.04;100.00;98499.56;1728305;82;21490;-63
2022/02/22 07:49:51;;;;;;;7.67;4.47;;;;;;;10.28;100.00;98499.70;1728490;82;21074;-63
2022/02/22 07:52:18;;;;;;;6.33;4.20;;;;;;;10.58;100.00;98490.73;1713871;82;21098;-62
2022/02/22 07:54:45;;;;;;;6.65;4.37;;;;;;;10.58;100.00;98490.17;1729763;83;21096;-62
2022/02/22 07:57:12;;;;;;;6.08;4.08;;;;;;;10.62;100.00;98486.30;1726516;81;21522;-62
2022/02/22 07:59:38;;;;;;;5.75;3.83;;;;;;;10.79;100.00;98485.13;1726938;82;21557;-64
2022/02/22 08:02:05;;;;;;;;;;;;;;;10.88;100.00;98484.11;1729222;82;21624;-63
2022/02/22 08:04:32;;;;;;;5.87;3.80;;;;;;;10.78;100.00;98482.96;1728615;83;20402;-63
2022/02/22 08:06:59;;;;;;;6.55;4.20;;;;;;;10.59;100.00;98485.55;1727761;81;21467;-62
2022/02/22 08:09:25;;;;;;;7.08;4.12;;;;;;;10.60;100.00;98488.50;1731977;81;21638;-62
2022/02/22 08:11:52;;;;;;;;;;;;;;;10.79;100.00;98483.77;1729513;81;21455;-62
2022/02/22 08:14:18;;;;;;;4.62;3.22;;;;;;;11.07;100.00;98485.91;1727579;81;20130;-62
2022/02/22 08:16:44;;;;;;;;;;;;;;;11.33;100.00;98482.34;1730522;82;21006;-63
2022/02/22 08:19:11;;;;;;;6.30;3.80;;;;;;;11.63;97.34;98478.64;1728438;83;20280;-65
2022/02/22 08:21:38;;;;;;;7.05;4.00;;;;;;;11.76;93.68;98479.98;1723784;82;20996;-62
2022/02/22 08:24:05;;;;;;;;;;;;;;;11.93;89.41;98482.05;1728030;81;21055;-63
2022/02/22 08:26:32;;;;;;;5.45;3.58;;;;;;;12.32;87.03;98479.40;1727915;82;20102;-63
2022/02/22 08:28:59;;;;;;;6.65;4.08;;;;;;;12.71;86.08;98494.17;1727966;81;21083;-63
2022/02/22 08:31:26;;;;;;;;;;;;;;;13.05;80.35;98489.38;1730300;82;20936;-63
2022/02/22 08:33:58;;;;;;;4.97;3.37;;;;;;;13.22;71.74;98488.88;1728641;81;20122;-63
2022/02/22 08:36:21;;;;;;;5.28;3.25;;;;;;;13.24;74.46;98495.41;1720516;83;21585;-63
2022/02/22 08:38:48;;;;;;;;;;;;;;;13.48;67.93;98481.28;1730496;83;20999;-63
2022/02/22 08:41:14;;;;;;;5.00;2.80;;;;;;;13.50;61.22;98492.72;1727898;83;20102;-63
2022/02/22 08:43:41;;;;;;;4.55;2.62;;;;;;;13.28;62.11;98492.28;1727357;81;21480;-63
2022/02/22 08:46:08;;;;;;;;;;;;;;;13.39;58.08;98498.47;1714988;81;21303;-62
2022/02/22 08:48:34;;;;;;;3.05;1.52;;;;;;;13.46;54.57;98490.59;1654873;85;20116;-62
2022/02/22 08:51:01;;;;;;;5.08;2.02;;;;;;;13.53;52.09;98492.06;1675573;84;21044;-62
2022/02/22 08:53:28;;;;;;;5.33;2.58;;;;;;;13.77;49.46;98501.41;1672471;84;21111;-63
2022/02/22 08:55:55;;;;;;;4.37;2.50;;;;;;;13.80;50.28;98501.31;1714430;82;21494;-63
2022/02/22 08:58:22;;;;;;;4.50;2.50;;;;;;;13.64;50.00;98496.88;1712119;82;21027;-63
2022/02/22 09:00:48;;;;;;;4.70;2.12;;;;;;;13.69;48.96;98506.30;1716021;82;21007;-62
2022/02/22 09:03:15;;;;;;;3.62;1.95;;;;;;;13.87;49.13;98506.55;1715361;83;21036;-62
2022/02/22 09:05:41;;;;;;;;;;;;;;;14.19;46.48;98508.52;1718192;82;21023;-62
2022/02/22 09:08:09;;;;;;;;;;;;;;;14.27;44.94;98515.91;1723156;82;20119;-62
2022/02/22 09:10:36;;;;;;;3.12;1.55;;;;;;;14.08;42.39;98517.63;1714475;83;20119;-62
2022/02/22 09:13:02;;;;;;;3.45;1.67;;;;;;;13.82;41.98;98522.30;1716307;83;21056;-63
2022/02/22 09:15:31;;;;;;;4.05;1.80;;;;;;;13.65;43.28;98515.46;1713385;82;21122;-63
2022/02/22 09:17:59;;;;;;;4.03;1.70;;;;;;;13.70;42.95;98513.95;1714812;82;21035;-63
2022/02/22 09:20:25;;;;;;;3.52;1.67;;;;;;;13.51;41.73;98516.17;1711049;83;21000;-63
2022/02/22 09:22:53;;;;;;;;;;;;;;;13.15;42.30;98510.41;1728351;81;21103;-62
2022/02/22 09:25:20;;;;;;;4.33;2.00;;;;;;;13.11;43.77;98510.02;1693381;83;20144;-62
2022/02/22 09:27:46;;;;;;;5.95;2.33;;;;;;;13.25;44.37;98518.89;1714655;82;21459;-63
2022/02/22 09:30:14;;;;;;;;;;;;;;;13.25;44.08;98505.22;1716011;82;21030;-62
2022/02/22 09:32:44;;;;;;;5.10;2.40;;;;;;;13.45;44.30;98512.80;1715129;82;20099;-63
2022/02/22 09:35:18;;;;;;;4.08;2.27;;;;;;;13.36;43.83;98507.87;1712682;82;20972;-62
2022/02/22 09:37:44;;;;;;;4.10;2.02;;;;;;;13.58;43.97;98506.38;1715339;82;21507;-63
2022/02/22 09:40:12;;;;;;;5.83;2.40;;;;;;;13.81;43.63;98504.30;1715550;82;20988;-62
2022/02/22 09:42:43;;;;;;;5.45;2.30;;;;;;;14.16;43.53;98503.14;1712927;82;21039;-63
2022/02/22 09:45:10;;;;;;;5.22;1.80;;;;;;;14.36;42.24;98499.73;1712215;82;20995;-63
2022/02/22 09:47:37;;;;;;;3.37;1.80;;;;;;;14.62;42.97;98499.66;1727990;81;21098;-63
2022/02/22 09:50:05;;;;;;;3.92;2.47;;;;;;;14.95;40.93;98507.48;1728408;82;21455;-63
2022/02/22 09:52:32;;;;;;;3.83;2.00;;;;;;;15.27;41.31;98495.05;1727879;81;21055;-63
2022/02/22 09:54:59;;;;;;;4.62;1.80;;;;;;;15.69;39.52;98496.50;1726259;81;21011;-63
2022/02/22 09:57:25;;;;;;;4.60;1.60;;;;;;;15.68;38.72;98490.77;1728061;83;21141;-63
2022/02/22 09:59:52;;;;;;;5.45;2.77;;;;;;;15.65;37.93;98504.59;1728097;83;21407;-62
2022/02/22 10:02:18;;;;;;;4.10;1.87;;;;;;;15.45;38.10;98492.42;1727144;82;20968;-63
2022/02/22 10:04:46;;;;;;;;;;;;;;;15.33;38.17;98499.22;1730764;82;21690;-63
2022/02/22 10:07:12;;;;;;;;;;;;;;;14.84;36.80;98501.34;1730831;82;20118;-61
2022/02/22 10:09:55;;;;;;;4.42;2.22;;;;;;;14.05;38.51;98503.23;1728685;82;20426;-62
2022/02/22 10:12:35;;;;;;;4.08;1.95;;;;;;;14.11;39.77;98499.75;1723851;82;21010;-62
2022/02/22 10:15:02;;;;;;;4.90;1.67;;;;;;;14.06;38.39;98501.30;1727715;83;21039;-63
2022/02/22 10:17:39;;;;;;;4.92;1.87;;;;;;;13.56;40.06;98511.38;1728811;82;21050;-62
2022/02/22 10:20:08;;;;;;;4.03;1.60;;;;;;;13.07;40.01;98504.34;1728158;83;21019;-62
2022/02/22 10:22:53;;;;;;;3.55;1.62;;;;;;;12.46;40.29;98512.05;1727558;81;21960;-63
2022/02/22 10:25:21;;;;;;;4.83;1.70;;;;;;;11.98;42.04;98514.08;1725471;83;21030;-62
2022/02/22 10:27:58;;;;;;;3.35;1.45;;;;;;;11.47;42.69;98506.83;1727883;82;21106;-63
2022/02/22 10:30:54;;;;;;;3.67;1.52;;;;;;;11.10;43.62;98507.89;1727308;83;21467;-63
2022/02/22 10:33:01;;;;;;;4.28;1.50;;;;;;;10.67;44.49;98512.03;1707201;83;21035;-63
2022/02/22 10:35:31;;;;;;;5.22;1.77;;;;;;;10.36;45.12;98519.42;1728332;82;21608;-63
2022/02/22 10:37:59;;;;;;;3.35;1.80;;;;;;;10.14;47.24;98515.17;1728286;82;21047;-64
2022/02/22 10:40:29;;;;;;;4.58;1.67;;;;;;;10.05;48.38;98510.70;1725910;83;21502;-62
2022/02/22 10:42:57;;;;;;;5.12;2.02;;;;;;;9.94;48.79;98514.14;1720417;81;21067;-61
2022/02/22 10:45:24;;;;;;;4.00;1.90;;;;;;;9.75;50.13;98509.27;1727520;83;21030;-63
2022/02/22 10:47:51;;;;;;;4.92;2.00;;;;;;;9.73;52.27;98513.66;1727593;81;21047;-62
2022/02/22 10:50:26;;;;;;;3.35;1.60;;;;;;;9.77;52.16;98511.97;1728527;83;21070;-61
2022/02/22 10:52:52;;;;;;;6.78;2.10;;;;;;;9.77;53.32;98504.36;1725559;82;21023;-62
2022/02/22 10:55:19;;;;;;;5.87;2.05;;;;;;;9.78;53.67;98496.44;1728438;83;21600;-62
2022/02/22 10:57:47;;;;;;;4.22;2.20;;;;;;;9.83;55.07;98497.19;1728449;81;21605;-62
2022/02/22 11:00:15;;;;;;;3.90;1.92;;;;;;;9.84;53.71;98500.17;1727087;83;21011;-62
2022/02/22 11:02:45;;;;;;;6.25;2.25;;;;;;;9.80;53.51;98502.41;1727660;81;21047;-62
2022/02/22 11:05:13;;;;;;;5.30;2.40;;;;;;;9.71;54.78;98491.39;1738368;82;21003;-62
2022/02/22 11:07:39;;;;;;;5.62;2.42;;;;;;;9.66;54.92;98501.55;1728512;82;21556;-61
2022/02/22 11:10:08;;;;;;;6.78;2.50;;;;;;;9.68;55.92;98497.97;1727679;83;20999;-62
2022/02/22 11:12:40;;;;;;;5.62;2.08;;;;;;;9.68;56.66;98504.22;1724936;82;21023;-62
2022/02/22 11:15:11;;;;;;;6.75;3.92;;;;;;;9.69;55.64;98497.69;1728433;83;21534;-61
2022/02/22 11:17:49;;;;;;;5.22;2.55;;;;;;;9.73;56.28;98493.83;1710587;82;21629;-62
2022/02/22 11:20:32;;;;;;;6.80;1.75;;;;;;;9.78;53.57;98496.44;1724671;83;21581;-62
2022/02/22 11:23:04;;;;;;;5.87;1.67;;;;;;;9.79;54.51;98501.59;1725741;82;21719;-62
2022/02/22 11:25:33;;;;;;;3.70;1.65;;;;;;;9.90;56.08;98504.95;1728006;83;21014;-63
2022/02/22 11:28:09;;;;;;;4.70;2.10;;;;;;;9.95;54.64;98503.53;1727753;82;21058;-62
2022/02/22 11:30:35;;;;;;;4.90;2.00;;;;;;;9.92;54.17;98506.81;1728231;82;20991;-62
2022/02/22 11:33:08;;;;;;;;;;;;;;;9.90;54.02;98506.31;1733636;81;21053;-62
2022/02/22 11:35:57;;;;;;;5.67;2.70;;;;;;;9.88;53.58;98500.38;1728461;83;20110;-63
2022/02/22 11:38:25;;;;;;;7.00;2.10;;;;;;;9.76;55.14;98498.12;1727289;81;21432;-62
2022/02/22 11:40:53;;;;;;;6.55;2.87;;;;;;;9.85;56.03;98499.05;1728341;83;21026;-62
2022/02/22 11:43:21;;;;;;;6.42;3.47;;;;;;;9.94;55.86;98501.91;1729906;81;21663;-63
2022/02/22 11:45:50;;;;;;;5.70;2.45;;;;;;;10.07;55.66;98491.61;1723581;83;21554;-61
2022/02/22 11:48:26;;;;;;;6.62;3.12;;;;;;;10.14;54.97;98494.78;1711730;82;21025;-62
2022/02/22 11:51:00;;;;;;;5.45;2.52;;;;;;;10.16;55.33;98489.88;1716341;82;20971;-62
2022/02/22 11:53:27;;;;;;;5.65;2.20;;;;;;;10.21;55.76;98503.36;1715428;82;21034;-62